sensor_id;sensor_type;location;lat;lon;timestamp;temperature;humidity
3001;DHT22;1510;51.072;6.678;2023-04-16T00:02:02;7.60;99.90
3001;DHT22;1510;51.072;6.678;2023-04-16T00:04:30;7.60;99.90
3001;DHT22;1510;51.072;6.678;2023-04-16T00:06:57;7.50;99.90
3001;DHT22;1510;51.072;6.678;2023-04-16T00:09:24;7.50;99.90
3001;DHT22;1510;51.072;6.678;2023-04-16T00:11:51;7.60;99.90
3001;DHT22;1510;51.072;6.678;2023-04-16T00:14:18;7.60;99.90
3001;DHT22;1510;51.072;6.678;2023-04-16T00:16:45;7.70;99.90
3001;DHT22;1510;51.072;6.678;2023-04-16T00:19:12;7.60;99.90
3001;DHT22;1510;51.072;6.678;2023-04-16T00:21:40;7.60;99.90
3001;DHT22;1510;51.072;6.678;2023-04-16T00:24:07;7.60;99.90
3001;DHT22;1510;51.072;6.678;2023-04-16T00:26:34;7.70;99.90
3001;DHT22;1510;51.072;6.678;2023-04-16T00:29:01;7.60;99.90
3001;DHT22;1510;51.072;6.678;2023-04-16T00:31:30;7.70;99.90
3001;DHT22;1510;51.072;6.678;2023-04-16T00:33:57;7.80;99.90
3001;DHT22;1510;51.072;6.678;2023-04-16T00:36:25;7.60;99.90
3001;DHT22;1510;51.072;6.678;2023-04-16T00:38:54;7.60;99.90
3001;DHT22;1510;51.072;6.678;2023-04-16T00:41:21;7.60;99.90
3001;DHT22;1510;51.072;6.678;2023-04-16T00:43:49;7.70;99.90
3001;DHT22;1510;51.072;6.678;2023-04-16T00:46:16;7.70;99.90
3001;DHT22;1510;51.072;6.678;2023-04-16T00:48:44;7.70;99.90
3001;DHT22;1510;51.072;6.678;2023-04-16T00:51:11;7.60;99.90
3001;DHT22;1510;51.072;6.678;2023-04-16T00:53:38;7.70;99.90
3001;DHT22;1510;51.072;6.678;2023-04-16T00:56:07;7.70;99.90
3001;DHT22;1510;51.072;6.678;2023-04-16T00:58:35;7.80;99.90
3001;DHT22;1510;51.072;6.678;2023-04-16T01:01:02;7.70;99.90
3001;DHT22;1510;51.072;6.678;2023-04-16T01:03:36;7.80;99.90
3001;DHT22;1510;51.072;6.678;2023-04-16T01:06:04;7.80;99.90
3001;DHT22;1510;51.072;6.678;2023-04-16T01:08:31;7.80;99.90
3001;DHT22;1510;51.072;6.678;2023-04-16T01:10:58;7.80;99.90
3001;DHT22;1510;51.072;6.678;2023-04-16T01:13:27;7.70;99.90
3001;DHT22;1510;51.072;6.678;2023-04-16T01:15:54;7.70;99.90
3001;DHT22;1510;51.072;6.678;2023-04-16T01:18:21;7.80;99.90
3001;DHT22;1510;51.072;6.678;2023-04-16T01:20:50;7.80;99.90
3001;DHT22;1510;51.072;6.678;2023-04-16T01:23:17;7.90;99.90
3001;DHT22;1510;51.072;6.678;2023-04-16T01:25:44;7.90;99.90
3001;DHT22;1510;51.072;6.678;2023-04-16T01:28:11;7.80;99.90
3001;DHT22;1510;51.072;6.678;2023-04-16T01:30:38;7.80;99.90
3001;DHT22;1510;51.072;6.678;2023-04-16T01:33:06;7.70;99.90
3001;DHT22;1510;51.072;6.678;2023-04-16T01:35:33;7.80;99.90
3001;DHT22;1510;51.072;6.678;2023-04-16T01:38:01;7.80;99.90
3001;DHT22;1510;51.072;6.678;2023-04-16T01:40:28;7.80;99.90
3001;DHT22;1510;51.072;6.678;2023-04-16T01:42:55;7.90;99.90
3001;DHT22;1510;51.072;6.678;2023-04-16T01:45:22;7.90;99.90
3001;DHT22;1510;51.072;6.678;2023-04-16T01:47:49;7.80;99.90
3001;DHT22;1510;51.072;6.678;2023-04-16T01:50:17;7.80;99.90
3001;DHT22;1510;51.072;6.678;2023-04-16T01:52:44;7.80;99.90
3001;DHT22;1510;51.072;6.678;2023-04-16T01:55:12;7.90;99.90
3001;DHT22;1510;51.072;6.678;2023-04-16T01:57:40;7.80;99.90
3001;DHT22;1510;51.072;6.678;2023-04-16T02:00:10;7.90;99.90
3001;DHT22;1510;51.072;6.678;2023-04-16T02:02:38;7.90;99.90
3001;DHT22;1510;51.072;6.678;2023-04-16T02:05:06;7.80;99.90
3001;DHT22;1510;51.072;6.678;2023-04-16T02:07:33;7.90;99.90
3001;DHT22;1510;51.072;6.678;2023-04-16T02:10:00;7.90;99.90
3001;DHT22;1510;51.072;6.678;2023-04-16T02:12:30;7.80;99.90
3001;DHT22;1510;51.072;6.678;2023-04-16T02:14:57;7.80;99.90
3001;DHT22;1510;51.072;6.678;2023-04-16T02:17:24;7.80;99.90
3001;DHT22;1510;51.072;6.678;2023-04-16T02:19:51;7.90;99.90
3001;DHT22;1510;51.072;6.678;2023-04-16T02:22:18;7.80;99.90
3001;DHT22;1510;51.072;6.678;2023-04-16T02:24:45;7.80;99.90
3001;DHT22;1510;51.072;6.678;2023-04-16T02:27:12;7.70;99.90
3001;DHT22;1510;51.072;6.678;2023-04-16T02:29:40;7.90;99.90
3001;DHT22;1510;51.072;6.678;2023-04-16T02:32:07;7.90;99.90
3001;DHT22;1510;51.072;6.678;2023-04-16T02:34:34;7.80;99.90
3001;DHT22;1510;51.072;6.678;2023-04-16T02:37:04;7.90;99.90
3001;DHT22;1510;51.072;6.678;2023-04-16T02:39:31;7.80;99.90
3001;DHT22;1510;51.072;6.678;2023-04-16T02:41:58;7.80;99.90
3001;DHT22;1510;51.072;6.678;2023-04-16T02:44:27;7.80;99.90
3001;DHT22;1510;51.072;6.678;2023-04-16T02:46:55;7.90;99.90
3001;DHT22;1510;51.072;6.678;2023-04-16T02:49:22;7.90;99.90
3001;DHT22;1510;51.072;6.678;2023-04-16T02:51:58;7.80;99.90
3001;DHT22;1510;51.072;6.678;2023-04-16T02:54:25;7.80;99.90
3001;DHT22;1510;51.072;6.678;2023-04-16T02:56:52;7.90;99.90
3001;DHT22;1510;51.072;6.678;2023-04-16T02:59:18;7.80;99.90
3001;DHT22;1510;51.072;6.678;2023-04-16T03:01:46;7.80;99.90
3001;DHT22;1510;51.072;6.678;2023-04-16T03:04:15;7.90;99.90
3001;DHT22;1510;51.072;6.678;2023-04-16T03:06:42;7.90;99.90
3001;DHT22;1510;51.072;6.678;2023-04-16T03:09:09;7.90;99.90
3001;DHT22;1510;51.072;6.678;2023-04-16T03:11:36;7.80;99.90
3001;DHT22;1510;51.072;6.678;2023-04-16T03:14:03;7.80;99.90
3001;DHT22;1510;51.072;6.678;2023-04-16T03:16:30;7.80;99.90
3001;DHT22;1510;51.072;6.678;2023-04-16T03:18:57;7.90;99.90
3001;DHT22;1510;51.072;6.678;2023-04-16T03:21:27;8.00;99.90
3001;DHT22;1510;51.072;6.678;2023-04-16T03:23:54;7.90;99.90
3001;DHT22;1510;51.072;6.678;2023-04-16T03:26:22;7.80;99.90
3001;DHT22;1510;51.072;6.678;2023-04-16T03:28:51;7.90;99.90
3001;DHT22;1510;51.072;6.678;2023-04-16T03:31:35;7.90;99.90
3001;DHT22;1510;51.072;6.678;2023-04-16T03:34:02;7.80;99.90
3001;DHT22;1510;51.072;6.678;2023-04-16T03:36:30;7.80;99.90
3001;DHT22;1510;51.072;6.678;2023-04-16T03:38:57;7.80;99.90
3001;DHT22;1510;51.072;6.678;2023-04-16T03:41:24;7.90;99.90
3001;DHT22;1510;51.072;6.678;2023-04-16T03:43:50;7.80;99.90
3001;DHT22;1510;51.072;6.678;2023-04-16T03:46:17;7.90;99.90
3001;DHT22;1510;51.072;6.678;2023-04-16T03:48:44;7.90;99.90
3001;DHT22;1510;51.072;6.678;2023-04-16T03:51:11;7.80;99.90
3001;DHT22;1510;51.072;6.678;2023-04-16T03:53:39;7.90;99.90
3001;DHT22;1510;51.072;6.678;2023-04-16T03:56:06;7.90;99.90
3001;DHT22;1510;51.072;6.678;2023-04-16T03:58:33;7.70;99.90
3001;DHT22;1510;51.072;6.678;2023-04-16T04:01:00;7.80;99.90
3001;DHT22;1510;51.072;6.678;2023-04-16T04:03:27;7.90;99.90
3001;DHT22;1510;51.072;6.678;2023-04-16T04:05:54;7.80;99.90
3001;DHT22;1510;51.072;6.678;2023-04-16T04:08:21;7.80;99.90
3001;DHT22;1510;51.072;6.678;2023-04-16T04:10:49;7.80;99.90
3001;DHT22;1510;51.072;6.678;2023-04-16T04:13:16;7.80;99.90
3001;DHT22;1510;51.072;6.678;2023-04-16T04:15:43;7.80;99.90
3001;DHT22;1510;51.072;6.678;2023-04-16T04:18:10;7.80;99.90
3001;DHT22;1510;51.072;6.678;2023-04-16T04:20:38;7.90;99.90
3001;DHT22;1510;51.072;6.678;2023-04-16T04:23:06;7.90;99.90
3001;DHT22;1510;51.072;6.678;2023-04-16T04:25:34;7.80;99.90
3001;DHT22;1510;51.072;6.678;2023-04-16T04:28:12;7.80;99.90
3001;DHT22;1510;51.072;6.678;2023-04-16T04:30:41;8.00;99.90
3001;DHT22;1510;51.072;6.678;2023-04-16T04:33:14;7.80;99.90
3001;DHT22;1510;51.072;6.678;2023-04-16T04:35:42;7.90;99.90
3001;DHT22;1510;51.072;6.678;2023-04-16T04:38:09;7.90;99.90
3001;DHT22;1510;51.072;6.678;2023-04-16T04:40:36;7.90;99.90
3001;DHT22;1510;51.072;6.678;2023-04-16T04:43:03;7.90;99.90
3001;DHT22;1510;51.072;6.678;2023-04-16T04:45:31;7.90;99.90
3001;DHT22;1510;51.072;6.678;2023-04-16T04:48:01;7.90;99.90
3001;DHT22;1510;51.072;6.678;2023-04-16T04:50:28;7.90;99.90
3001;DHT22;1510;51.072;6.678;2023-04-16T04:52:55;7.90;99.90
3001;DHT22;1510;51.072;6.678;2023-04-16T04:55:21;7.90;99.90
3001;DHT22;1510;51.072;6.678;2023-04-16T04:57:49;7.80;99.90
3001;DHT22;1510;51.072;6.678;2023-04-16T05:00:21;7.90;99.90
3001;DHT22;1510;51.072;6.678;2023-04-16T05:02:52;7.90;99.90
3001;DHT22;1510;51.072;6.678;2023-04-16T05:05:19;7.90;99.90
3001;DHT22;1510;51.072;6.678;2023-04-16T05:08:08;8.00;99.90
3001;DHT22;1510;51.072;6.678;2023-04-16T05:10:38;7.90;99.90
3001;DHT22;1510;51.072;6.678;2023-04-16T05:13:07;8.00;99.90
3001;DHT22;1510;51.072;6.678;2023-04-16T05:19:11;8.00;99.90
3001;DHT22;1510;51.072;6.678;2023-04-16T05:25:41;7.90;99.90
3001;DHT22;1510;51.072;6.678;2023-04-16T05:29:02;8.10;99.90
3001;DHT22;1510;51.072;6.678;2023-04-16T05:32:11;8.00;99.90
3001;DHT22;1510;51.072;6.678;2023-04-16T05:45:38;8.10;99.90
3001;DHT22;1510;51.072;6.678;2023-04-16T05:48:20;8.10;99.90
3001;DHT22;1510;51.072;6.678;2023-04-16T05:50:47;8.20;99.90
3001;DHT22;1510;51.072;6.678;2023-04-16T05:53:37;8.20;99.90
3001;DHT22;1510;51.072;6.678;2023-04-16T05:56:37;8.20;99.90
3001;DHT22;1510;51.072;6.678;2023-04-16T05:59:47;8.20;99.90
3001;DHT22;1510;51.072;6.678;2023-04-16T06:02:30;8.30;99.90
3001;DHT22;1510;51.072;6.678;2023-04-16T06:04:57;8.20;99.90
3001;DHT22;1510;51.072;6.678;2023-04-16T06:07:24;8.20;99.90
3001;DHT22;1510;51.072;6.678;2023-04-16T06:09:51;8.20;99.90
3001;DHT22;1510;51.072;6.678;2023-04-16T06:12:17;8.30;99.90
3001;DHT22;1510;51.072;6.678;2023-04-16T06:14:44;8.20;99.90
3001;DHT22;1510;51.072;6.678;2023-04-16T06:17:11;8.20;99.90
3001;DHT22;1510;51.072;6.678;2023-04-16T06:19:40;8.20;99.90
3001;DHT22;1510;51.072;6.678;2023-04-16T06:22:35;8.30;99.90
3001;DHT22;1510;51.072;6.678;2023-04-16T06:25:03;8.30;99.90
3001;DHT22;1510;51.072;6.678;2023-04-16T06:27:30;8.30;99.90
3001;DHT22;1510;51.072;6.678;2023-04-16T06:29:57;8.10;99.90
3001;DHT22;1510;51.072;6.678;2023-04-16T06:32:24;8.30;99.90
3001;DHT22;1510;51.072;6.678;2023-04-16T06:34:52;8.20;99.90
3001;DHT22;1510;51.072;6.678;2023-04-16T06:41:15;8.30;99.90
3001;DHT22;1510;51.072;6.678;2023-04-16T06:43:59;8.30;99.90
3001;DHT22;1510;51.072;6.678;2023-04-16T06:46:26;8.30;99.90
3001;DHT22;1510;51.072;6.678;2023-04-16T06:48:53;8.20;99.90
3001;DHT22;1510;51.072;6.678;2023-04-16T06:51:22;8.30;99.90
3001;DHT22;1510;51.072;6.678;2023-04-16T06:53:49;8.30;99.90
3001;DHT22;1510;51.072;6.678;2023-04-16T06:56:16;8.30;99.90
3001;DHT22;1510;51.072;6.678;2023-04-16T06:58:43;8.30;99.90
3001;DHT22;1510;51.072;6.678;2023-04-16T07:02:10;8.20;99.90
3001;DHT22;1510;51.072;6.678;2023-04-16T07:04:23;8.40;99.90
3001;DHT22;1510;51.072;6.678;2023-04-16T07:12:41;8.40;99.90
3001;DHT22;1510;51.072;6.678;2023-04-16T07:15:09;8.30;99.90
3001;DHT22;1510;51.072;6.678;2023-04-16T07:17:39;8.30;99.90
3001;DHT22;1510;51.072;6.678;2023-04-16T07:20:27;8.30;99.90
3001;DHT22;1510;51.072;6.678;2023-04-16T07:22:54;8.30;99.90
3001;DHT22;1510;51.072;6.678;2023-04-16T07:25:24;8.40;99.90
3001;DHT22;1510;51.072;6.678;2023-04-16T07:27:52;8.50;99.90
3001;DHT22;1510;51.072;6.678;2023-04-16T07:30:21;8.50;99.90
3001;DHT22;1510;51.072;6.678;2023-04-16T07:32:48;8.50;99.90
3001;DHT22;1510;51.072;6.678;2023-04-16T07:38:46;8.50;99.90
3001;DHT22;1510;51.072;6.678;2023-04-16T07:41:13;8.60;99.90
3001;DHT22;1510;51.072;6.678;2023-04-16T07:50:39;8.70;99.90
3001;DHT22;1510;51.072;6.678;2023-04-16T07:53:25;8.70;99.90
3001;DHT22;1510;51.072;6.678;2023-04-16T07:55:55;8.70;99.90
3001;DHT22;1510;51.072;6.678;2023-04-16T07:58:28;8.70;99.90
3001;DHT22;1510;51.072;6.678;2023-04-16T08:00:55;8.80;99.90
3001;DHT22;1510;51.072;6.678;2023-04-16T08:03:22;8.90;99.90
3001;DHT22;1510;51.072;6.678;2023-04-16T08:06:07;8.80;99.90
3001;DHT22;1510;51.072;6.678;2023-04-16T08:08:48;8.80;99.90
3001;DHT22;1510;51.072;6.678;2023-04-16T08:11:18;8.90;99.90
3001;DHT22;1510;51.072;6.678;2023-04-16T08:19:42;8.80;99.90
3001;DHT22;1510;51.072;6.678;2023-04-16T08:25:36;9.10;99.90
3001;DHT22;1510;51.072;6.678;2023-04-16T08:28:04;9.10;99.90
3001;DHT22;1510;51.072;6.678;2023-04-16T08:31:04;9.20;99.90
3001;DHT22;1510;51.072;6.678;2023-04-16T08:33:32;9.20;99.90
3001;DHT22;1510;51.072;6.678;2023-04-16T08:35:59;9.20;99.90
3001;DHT22;1510;51.072;6.678;2023-04-16T08:38:25;9.20;99.90
3001;DHT22;1510;51.072;6.678;2023-04-16T08:41:11;9.20;99.90
3001;DHT22;1510;51.072;6.678;2023-04-16T08:43:43;9.40;99.90
3001;DHT22;1510;51.072;6.678;2023-04-16T08:46:11;9.40;99.90
3001;DHT22;1510;51.072;6.678;2023-04-16T08:48:39;9.50;99.90
3001;DHT22;1510;51.072;6.678;2023-04-16T08:51:09;9.80;99.90
3001;DHT22;1510;51.072;6.678;2023-04-16T08:53:43;9.60;99.90
3001;DHT22;1510;51.072;6.678;2023-04-16T08:56:19;9.60;99.90
3001;DHT22;1510;51.072;6.678;2023-04-16T08:58:47;9.80;99.90
3001;DHT22;1510;51.072;6.678;2023-04-16T09:01:20;9.90;99.90
3001;DHT22;1510;51.072;6.678;2023-04-16T09:03:48;9.60;99.90
3001;DHT22;1510;51.072;6.678;2023-04-16T09:06:15;9.60;99.90
3001;DHT22;1510;51.072;6.678;2023-04-16T09:08:43;9.60;99.90
3001;DHT22;1510;51.072;6.678;2023-04-16T09:11:12;9.70;99.90
3001;DHT22;1510;51.072;6.678;2023-04-16T09:13:40;9.50;99.90
3001;DHT22;1510;51.072;6.678;2023-04-16T09:16:07;9.50;99.90
3001;DHT22;1510;51.072;6.678;2023-04-16T09:18:35;9.60;99.90
3001;DHT22;1510;51.072;6.678;2023-04-16T09:21:02;9.80;99.90
3001;DHT22;1510;51.072;6.678;2023-04-16T09:23:30;9.90;99.90
3001;DHT22;1510;51.072;6.678;2023-04-16T09:25:58;10.10;99.90
3001;DHT22;1510;51.072;6.678;2023-04-16T09:31:28;10.50;99.90
3001;DHT22;1510;51.072;6.678;2023-04-16T09:34:02;10.70;99.90
3001;DHT22;1510;51.072;6.678;2023-04-16T09:36:30;10.90;99.90
3001;DHT22;1510;51.072;6.678;2023-04-16T09:38:58;10.80;99.90
3001;DHT22;1510;51.072;6.678;2023-04-16T09:41:44;10.90;99.90
3001;DHT22;1510;51.072;6.678;2023-04-16T09:44:12;11.10;99.90
3001;DHT22;1510;51.072;6.678;2023-04-16T09:46:41;11.20;99.90
3001;DHT22;1510;51.072;6.678;2023-04-16T09:49:08;11.50;99.90
3001;DHT22;1510;51.072;6.678;2023-04-16T09:51:36;11.80;99.90
3001;DHT22;1510;51.072;6.678;2023-04-16T09:57:01;11.90;99.90
3001;DHT22;1510;51.072;6.678;2023-04-16T09:59:28;12.30;99.90
3001;DHT22;1510;51.072;6.678;2023-04-16T10:02:00;12.50;99.90
3001;DHT22;1510;51.072;6.678;2023-04-16T10:05:05;12.70;99.90
3001;DHT22;1510;51.072;6.678;2023-04-16T10:07:38;12.60;99.90
3001;DHT22;1510;51.072;6.678;2023-04-16T10:10:53;12.50;99.90
3001;DHT22;1510;51.072;6.678;2023-04-16T10:23:26;12.70;99.90
3001;DHT22;1510;51.072;6.678;2023-04-16T10:26:24;12.90;99.90
3001;DHT22;1510;51.072;6.678;2023-04-16T10:33:09;13.10;99.90
3001;DHT22;1510;51.072;6.678;2023-04-16T10:36:09;12.60;99.90
3001;DHT22;1510;51.072;6.678;2023-04-16T10:38:40;12.70;99.90
3001;DHT22;1510;51.072;6.678;2023-04-16T10:41:27;13.00;99.90
3001;DHT22;1510;51.072;6.678;2023-04-16T10:44:05;12.80;99.90
3001;DHT22;1510;51.072;6.678;2023-04-16T10:49:37;12.80;99.90
3001;DHT22;1510;51.072;6.678;2023-04-16T10:49:48;12.80;99.90
3001;DHT22;1510;51.072;6.678;2023-04-16T10:55:04;13.30;99.90
3001;DHT22;1510;51.072;6.678;2023-04-16T10:57:38;13.30;99.90
3001;DHT22;1510;51.072;6.678;2023-04-16T11:00:22;13.40;99.90
3001;DHT22;1510;51.072;6.678;2023-04-16T11:03:20;13.00;99.90
3001;DHT22;1510;51.072;6.678;2023-04-16T11:05:48;13.10;99.90
3001;DHT22;1510;51.072;6.678;2023-04-16T11:08:44;13.50;99.90
3001;DHT22;1510;51.072;6.678;2023-04-16T11:11:48;14.10;99.90
3001;DHT22;1510;51.072;6.678;2023-04-16T11:17:38;15.00;99.90
3001;DHT22;1510;51.072;6.678;2023-04-16T11:23:49;14.40;99.90
3001;DHT22;1510;51.072;6.678;2023-04-16T11:26:30;14.40;99.90
3001;DHT22;1510;51.072;6.678;2023-04-16T11:28:57;14.50;99.90
3001;DHT22;1510;51.072;6.678;2023-04-16T11:31:24;14.10;99.90
3001;DHT22;1510;51.072;6.678;2023-04-16T11:33:53;13.80;99.90
3001;DHT22;1510;51.072;6.678;2023-04-16T11:36:21;13.80;99.90
3001;DHT22;1510;51.072;6.678;2023-04-16T11:38:49;13.70;99.90
3001;DHT22;1510;51.072;6.678;2023-04-16T11:41:19;14.20;99.40
3001;DHT22;1510;51.072;6.678;2023-04-16T11:43:47;14.50;99.20
3001;DHT22;1510;51.072;6.678;2023-04-16T11:46:14;14.80;96.30
3001;DHT22;1510;51.072;6.678;2023-04-16T11:48:48;14.80;95.90
3001;DHT22;1510;51.072;6.678;2023-04-16T11:51:16;15.00;95.00
3001;DHT22;1510;51.072;6.678;2023-04-16T11:53:48;15.10;96.90
3001;DHT22;1510;51.072;6.678;2023-04-16T11:56:51;14.80;96.20
3001;DHT22;1510;51.072;6.678;2023-04-16T11:59:36;14.30;99.90
3001;DHT22;1510;51.072;6.678;2023-04-16T12:02:43;14.20;99.40
3001;DHT22;1510;51.072;6.678;2023-04-16T12:05:26;14.50;98.90
3001;DHT22;1510;51.072;6.678;2023-04-16T12:07:55;14.50;94.70
3001;DHT22;1510;51.072;6.678;2023-04-16T12:10:25;14.60;94.30
3001;DHT22;1510;51.072;6.678;2023-04-16T12:12:52;14.70;92.90
3001;DHT22;1510;51.072;6.678;2023-04-16T12:19:14;14.60;92.90
3001;DHT22;1510;51.072;6.678;2023-04-16T12:22:06;14.50;95.00
3001;DHT22;1510;51.072;6.678;2023-04-16T12:24:56;14.30;92.70
3001;DHT22;1510;51.072;6.678;2023-04-16T12:27:25;14.40;92.80
3001;DHT22;1510;51.072;6.678;2023-04-16T12:30:05;14.50;92.80
3001;DHT22;1510;51.072;6.678;2023-04-16T12:32:36;14.50;92.80
3001;DHT22;1510;51.072;6.678;2023-04-16T12:35:06;14.70;92.90
3001;DHT22;1510;51.072;6.678;2023-04-16T12:37:33;14.70;93.20
3001;DHT22;1510;51.072;6.678;2023-04-16T12:40:01;14.70;91.80
3001;DHT22;1510;51.072;6.678;2023-04-16T12:42:30;14.80;91.80
3001;DHT22;1510;51.072;6.678;2023-04-16T12:45:00;14.90;91.50
3001;DHT22;1510;51.072;6.678;2023-04-16T12:47:28;15.10;93.10
3001;DHT22;1510;51.072;6.678;2023-04-16T12:49:55;14.90;90.80
3001;DHT22;1510;51.072;6.678;2023-04-16T12:52:22;14.90;90.90
3001;DHT22;1510;51.072;6.678;2023-04-16T12:54:50;15.00;92.20
3001;DHT22;1510;51.072;6.678;2023-04-16T12:57:17;14.90;89.30
3001;DHT22;1510;51.072;6.678;2023-04-16T12:59:45;14.80;92.80
3001;DHT22;1510;51.072;6.678;2023-04-16T13:02:12;14.90;93.00
3001;DHT22;1510;51.072;6.678;2023-04-16T13:04:39;14.70;92.90
3001;DHT22;1510;51.072;6.678;2023-04-16T13:07:06;14.60;94.20
3001;DHT22;1510;51.072;6.678;2023-04-16T13:09:33;14.40;94.90
3001;DHT22;1510;51.072;6.678;2023-04-16T13:11:59;14.20;93.30
3001;DHT22;1510;51.072;6.678;2023-04-16T13:14:26;14.00;93.20
3001;DHT22;1510;51.072;6.678;2023-04-16T13:16:55;13.90;92.60
3001;DHT22;1510;51.072;6.678;2023-04-16T13:19:25;13.80;93.80
3001;DHT22;1510;51.072;6.678;2023-04-16T13:21:52;13.80;95.20
3001;DHT22;1510;51.072;6.678;2023-04-16T13:24:21;13.70;95.30
3001;DHT22;1510;51.072;6.678;2023-04-16T13:26:48;13.70;95.70
3001;DHT22;1510;51.072;6.678;2023-04-16T13:29:15;13.70;95.50
3001;DHT22;1510;51.072;6.678;2023-04-16T13:31:42;13.80;95.70
3001;DHT22;1510;51.072;6.678;2023-04-16T13:34:11;13.90;95.30
3001;DHT22;1510;51.072;6.678;2023-04-16T13:36:38;13.80;94.30
3001;DHT22;1510;51.072;6.678;2023-04-16T13:39:05;13.90;95.90
3001;DHT22;1510;51.072;6.678;2023-04-16T13:41:35;13.90;94.40
3001;DHT22;1510;51.072;6.678;2023-04-16T13:44:02;14.10;92.70
3001;DHT22;1510;51.072;6.678;2023-04-16T13:46:30;14.10;93.60
3001;DHT22;1510;51.072;6.678;2023-04-16T13:48:57;14.00;92.60
3001;DHT22;1510;51.072;6.678;2023-04-16T13:51:25;14.20;93.60
3001;DHT22;1510;51.072;6.678;2023-04-16T13:53:53;14.20;92.70
3001;DHT22;1510;51.072;6.678;2023-04-16T13:56:20;14.10;92.50
3001;DHT22;1510;51.072;6.678;2023-04-16T13:58:47;14.30;90.70
3001;DHT22;1510;51.072;6.678;2023-04-16T14:01:14;14.30;91.50
3001;DHT22;1510;51.072;6.678;2023-04-16T14:03:41;14.50;92.80
3001;DHT22;1510;51.072;6.678;2023-04-16T14:06:08;14.60;92.90
3001;DHT22;1510;51.072;6.678;2023-04-16T14:08:36;14.70;90.50
3001;DHT22;1510;51.072;6.678;2023-04-16T14:11:03;14.60;92.30
3001;DHT22;1510;51.072;6.678;2023-04-16T14:13:31;14.70;92.70
3001;DHT22;1510;51.072;6.678;2023-04-16T14:15:59;14.80;91.30
3001;DHT22;1510;51.072;6.678;2023-04-16T14:18:26;14.90;93.00
3001;DHT22;1510;51.072;6.678;2023-04-16T14:20:53;15.00;92.10
3001;DHT22;1510;51.072;6.678;2023-04-16T14:23:20;15.30;92.10
3001;DHT22;1510;51.072;6.678;2023-04-16T14:25:48;15.50;91.80
3001;DHT22;1510;51.072;6.678;2023-04-16T14:28:16;15.70;87.20
3001;DHT22;1510;51.072;6.678;2023-04-16T14:30:42;16.00;85.90
3001;DHT22;1510;51.072;6.678;2023-04-16T14:33:09;16.60;79.50
3001;DHT22;1510;51.072;6.678;2023-04-16T14:35:36;17.20;80.00
3001;DHT22;1510;51.072;6.678;2023-04-16T14:38:03;17.30;78.10
3001;DHT22;1510;51.072;6.678;2023-04-16T14:40:30;17.70;72.10
3001;DHT22;1510;51.072;6.678;2023-04-16T14:42:58;17.60;73.20
3001;DHT22;1510;51.072;6.678;2023-04-16T14:45:25;17.20;74.40
3001;DHT22;1510;51.072;6.678;2023-04-16T14:47:54;17.10;70.30
3001;DHT22;1510;51.072;6.678;2023-04-16T14:50:21;16.90;75.00
3001;DHT22;1510;51.072;6.678;2023-04-16T14:53:01;16.60;81.20
3001;DHT22;1510;51.072;6.678;2023-04-16T14:55:28;16.70;73.50
3001;DHT22;1510;51.072;6.678;2023-04-16T14:57:55;16.50;73.20
3001;DHT22;1510;51.072;6.678;2023-04-16T15:00:24;16.00;74.50
3001;DHT22;1510;51.072;6.678;2023-04-16T15:02:52;15.90;75.70
3001;DHT22;1510;51.072;6.678;2023-04-16T15:05:19;15.90;74.40
3001;DHT22;1510;51.072;6.678;2023-04-16T15:07:46;15.60;73.90
3001;DHT22;1510;51.072;6.678;2023-04-16T15:10:14;15.50;74.10
3001;DHT22;1510;51.072;6.678;2023-04-16T15:12:41;15.50;75.60
3001;DHT22;1510;51.072;6.678;2023-04-16T15:15:09;15.50;75.70
3001;DHT22;1510;51.072;6.678;2023-04-16T15:17:38;15.40;75.80
3001;DHT22;1510;51.072;6.678;2023-04-16T15:20:07;15.40;74.00
3001;DHT22;1510;51.072;6.678;2023-04-16T15:22:34;15.50;74.10
3001;DHT22;1510;51.072;6.678;2023-04-16T15:25:03;15.40;72.10
3001;DHT22;1510;51.072;6.678;2023-04-16T15:27:30;15.50;75.60
3001;DHT22;1510;51.072;6.678;2023-04-16T15:29:57;15.70;78.30
3001;DHT22;1510;51.072;6.678;2023-04-16T15:32:25;15.50;78.30
3001;DHT22;1510;51.072;6.678;2023-04-16T15:34:56;15.50;79.20
3001;DHT22;1510;51.072;6.678;2023-04-16T15:37:22;15.30;77.50
3001;DHT22;1510;51.072;6.678;2023-04-16T15:39:49;14.90;76.30
3001;DHT22;1510;51.072;6.678;2023-04-16T15:42:17;14.70;78.90
3001;DHT22;1510;51.072;6.678;2023-04-16T15:44:44;14.70;78.70
3001;DHT22;1510;51.072;6.678;2023-04-16T15:47:11;14.40;80.30
3001;DHT22;1510;51.072;6.678;2023-04-16T15:49:38;14.30;80.90
3001;DHT22;1510;51.072;6.678;2023-04-16T15:52:06;14.10;83.90
3001;DHT22;1510;51.072;6.678;2023-04-16T15:54:33;14.10;84.10
3001;DHT22;1510;51.072;6.678;2023-04-16T15:57:00;14.10;85.30
3001;DHT22;1510;51.072;6.678;2023-04-16T15:59:27;14.00;90.80
3001;DHT22;1510;51.072;6.678;2023-04-16T16:01:54;13.80;92.50
3001;DHT22;1510;51.072;6.678;2023-04-16T16:04:21;13.70;93.40
3001;DHT22;1510;51.072;6.678;2023-04-16T16:06:50;13.50;94.80
3001;DHT22;1510;51.072;6.678;2023-04-16T16:09:18;13.50;96.30
3001;DHT22;1510;51.072;6.678;2023-04-16T16:11:50;13.30;95.70
3001;DHT22;1510;51.072;6.678;2023-04-16T16:14:18;13.30;97.10
3001;DHT22;1510;51.072;6.678;2023-04-16T16:16:44;13.20;97.70
3001;DHT22;1510;51.072;6.678;2023-04-16T16:19:11;13.20;97.50
3001;DHT22;1510;51.072;6.678;2023-04-16T16:21:39;13.20;97.40
3001;DHT22;1510;51.072;6.678;2023-04-16T16:24:05;12.90;97.20
3001;DHT22;1510;51.072;6.678;2023-04-16T16:26:34;12.80;98.80
3001;DHT22;1510;51.072;6.678;2023-04-16T16:29:01;12.70;99.40
3001;DHT22;1510;51.072;6.678;2023-04-16T16:31:28;12.60;99.90
3001;DHT22;1510;51.072;6.678;2023-04-16T16:33:54;12.80;99.90
3001;DHT22;1510;51.072;6.678;2023-04-16T16:36:21;12.50;99.90
3001;DHT22;1510;51.072;6.678;2023-04-16T16:38:48;12.40;99.90
3001;DHT22;1510;51.072;6.678;2023-04-16T16:41:15;12.40;99.90
3001;DHT22;1510;51.072;6.678;2023-04-16T16:43:44;12.30;99.90
3001;DHT22;1510;51.072;6.678;2023-04-16T16:46:11;12.30;99.90
3001;DHT22;1510;51.072;6.678;2023-04-16T16:48:37;12.10;99.90
3001;DHT22;1510;51.072;6.678;2023-04-16T16:51:08;12.10;99.90
3001;DHT22;1510;51.072;6.678;2023-04-16T16:53:35;12.00;99.90
3001;DHT22;1510;51.072;6.678;2023-04-16T16:56:02;12.00;99.90
3001;DHT22;1510;51.072;6.678;2023-04-16T16:58:29;11.80;99.90
3001;DHT22;1510;51.072;6.678;2023-04-16T17:00:57;11.80;99.90
3001;DHT22;1510;51.072;6.678;2023-04-16T17:03:24;11.20;99.90
3001;DHT22;1510;51.072;6.678;2023-04-16T17:05:52;10.90;99.90
3001;DHT22;1510;51.072;6.678;2023-04-16T17:08:19;10.60;99.90
3001;DHT22;1510;51.072;6.678;2023-04-16T17:10:46;10.60;99.90
3001;DHT22;1510;51.072;6.678;2023-04-16T17:13:13;10.60;99.90
3001;DHT22;1510;51.072;6.678;2023-04-16T17:15:44;10.60;99.90
3001;DHT22;1510;51.072;6.678;2023-04-16T17:18:12;10.50;99.90
3001;DHT22;1510;51.072;6.678;2023-04-16T17:20:39;10.60;99.90
3001;DHT22;1510;51.072;6.678;2023-04-16T17:23:06;10.50;99.90
3001;DHT22;1510;51.072;6.678;2023-04-16T17:25:33;10.50;99.90
3001;DHT22;1510;51.072;6.678;2023-04-16T17:28:00;10.70;99.90
3001;DHT22;1510;51.072;6.678;2023-04-16T17:30:29;10.60;99.90
3001;DHT22;1510;51.072;6.678;2023-04-16T17:32:56;10.50;99.90
3001;DHT22;1510;51.072;6.678;2023-04-16T17:35:25;10.50;99.90
3001;DHT22;1510;51.072;6.678;2023-04-16T17:37:51;10.50;99.90
3001;DHT22;1510;51.072;6.678;2023-04-16T17:40:18;10.50;99.90
3001;DHT22;1510;51.072;6.678;2023-04-16T17:42:45;10.50;99.90
3001;DHT22;1510;51.072;6.678;2023-04-16T17:45:13;10.40;99.90
3001;DHT22;1510;51.072;6.678;2023-04-16T17:47:40;10.50;99.90
3001;DHT22;1510;51.072;6.678;2023-04-16T17:50:09;10.40;99.90
3001;DHT22;1510;51.072;6.678;2023-04-16T17:52:38;10.40;99.90